sensor_id;sensor_type;location;lat;lon;timestamp;temperature;humidity
44477;DHT22;30180;44.788;10.366;2023-08-06T00:00:47;25.30;54.80
44477;DHT22;30180;44.788;10.366;2023-08-06T00:03:15;25.30;54.80
44477;DHT22;30180;44.788;10.366;2023-08-06T00:05:44;25.30;54.80
44477;DHT22;30180;44.788;10.366;2023-08-06T00:08:12;25.30;54.90
44477;DHT22;30180;44.788;10.366;2023-08-06T00:10:40;25.30;54.80
44477;DHT22;30180;44.788;10.366;2023-08-06T00:13:09;25.30;54.90
44477;DHT22;30180;44.788;10.366;2023-08-06T00:15:38;25.30;54.90
44477;DHT22;30180;44.788;10.366;2023-08-06T00:18:07;25.30;54.90
44477;DHT22;30180;44.788;10.366;2023-08-06T00:20:35;25.30;54.90
44477;DHT22;30180;44.788;10.366;2023-08-06T00:23:06;25.30;54.90
44477;DHT22;30180;44.788;10.366;2023-08-06T00:25:34;25.30;54.90
44477;DHT22;30180;44.788;10.366;2023-08-06T00:28:03;25.30;54.90
44477;DHT22;30180;44.788;10.366;2023-08-06T00:30:31;25.30;54.90
44477;DHT22;30180;44.788;10.366;2023-08-06T00:33:01;25.30;54.90
44477;DHT22;30180;44.788;10.366;2023-08-06T00:35:30;25.30;55.00
44477;DHT22;30180;44.788;10.366;2023-08-06T00:37:58;25.30;55.00
44477;DHT22;30180;44.788;10.366;2023-08-06T00:40:26;25.30;55.00
44477;DHT22;30180;44.788;10.366;2023-08-06T00:42:56;25.30;55.00
44477;DHT22;30180;44.788;10.366;2023-08-06T00:45:25;25.30;55.00
44477;DHT22;30180;44.788;10.366;2023-08-06T00:47:54;25.30;55.00
44477;DHT22;30180;44.788;10.366;2023-08-06T00:50:23;25.30;55.00
44477;DHT22;30180;44.788;10.366;2023-08-06T00:52:52;25.30;55.00
44477;DHT22;30180;44.788;10.366;2023-08-06T00:55:21;25.30;55.00
44477;DHT22;30180;44.788;10.366;2023-08-06T00:57:49;25.30;55.00
44477;DHT22;30180;44.788;10.366;2023-08-06T01:00:20;25.30;55.00
44477;DHT22;30180;44.788;10.366;2023-08-06T01:02:48;25.30;55.00
44477;DHT22;30180;44.788;10.366;2023-08-06T01:05:17;25.30;55.10
44477;DHT22;30180;44.788;10.366;2023-08-06T01:07:55;25.20;55.00
44477;DHT22;30180;44.788;10.366;2023-08-06T01:10:42;25.30;55.10
44477;DHT22;30180;44.788;10.366;2023-08-06T01:13:20;25.20;55.00
44477;DHT22;30180;44.788;10.366;2023-08-06T01:15:55;25.30;55.10
44477;DHT22;30180;44.788;10.366;2023-08-06T01:18:24;25.30;55.10
44477;DHT22;30180;44.788;10.366;2023-08-06T01:20:54;25.20;55.00
44477;DHT22;30180;44.788;10.366;2023-08-06T01:23:23;25.20;55.00
44477;DHT22;30180;44.788;10.366;2023-08-06T01:26:05;25.20;55.00
44477;DHT22;30180;44.788;10.366;2023-08-06T01:28:41;25.30;55.10
44477;DHT22;30180;44.788;10.366;2023-08-06T01:31:18;25.30;55.10
44477;DHT22;30180;44.788;10.366;2023-08-06T01:33:48;25.20;55.30
44477;DHT22;30180;44.788;10.366;2023-08-06T01:36:19;25.30;55.10
44477;DHT22;30180;44.788;10.366;2023-08-06T01:38:48;25.30;55.20
44477;DHT22;30180;44.788;10.366;2023-08-06T01:41:16;25.20;55.10
44477;DHT22;30180;44.788;10.366;2023-08-06T01:43:45;25.20;55.10
44477;DHT22;30180;44.788;10.366;2023-08-06T01:46:13;25.20;55.10
44477;DHT22;30180;44.788;10.366;2023-08-06T01:48:42;25.20;55.10
44477;DHT22;30180;44.788;10.366;2023-08-06T01:51:10;25.30;55.20
44477;DHT22;30180;44.788;10.366;2023-08-06T01:53:39;25.20;55.10
44477;DHT22;30180;44.788;10.366;2023-08-06T01:56:08;25.20;55.20
44477;DHT22;30180;44.788;10.366;2023-08-06T01:58:36;25.20;55.20
44477;DHT22;30180;44.788;10.366;2023-08-06T02:01:04;25.30;55.20
44477;DHT22;30180;44.788;10.366;2023-08-06T02:03:33;25.20;55.20
44477;DHT22;30180;44.788;10.366;2023-08-06T02:06:01;25.20;55.20
44477;DHT22;30180;44.788;10.366;2023-08-06T02:08:29;25.20;55.20
44477;DHT22;30180;44.788;10.366;2023-08-06T02:10:59;25.20;55.20
44477;DHT22;30180;44.788;10.366;2023-08-06T02:13:28;25.30;55.30
44477;DHT22;30180;44.788;10.366;2023-08-06T02:15:57;25.20;55.20
44477;DHT22;30180;44.788;10.366;2023-08-06T02:18:25;25.20;55.40
44477;DHT22;30180;44.788;10.366;2023-08-06T02:20:57;25.20;55.30
44477;DHT22;30180;44.788;10.366;2023-08-06T02:23:26;25.20;55.30
44477;DHT22;30180;44.788;10.366;2023-08-06T02:26:00;25.20;55.30
44477;DHT22;30180;44.788;10.366;2023-08-06T02:28:28;25.20;55.30
44477;DHT22;30180;44.788;10.366;2023-08-06T02:30:57;25.20;55.30
44477;DHT22;30180;44.788;10.366;2023-08-06T02:33:25;25.20;55.30
44477;DHT22;30180;44.788;10.366;2023-08-06T02:35:59;25.20;55.30
44477;DHT22;30180;44.788;10.366;2023-08-06T02:38:29;25.20;55.30
44477;DHT22;30180;44.788;10.366;2023-08-06T02:40:59;25.20;55.30
44477;DHT22;30180;44.788;10.366;2023-08-06T02:43:29;25.20;55.30
44477;DHT22;30180;44.788;10.366;2023-08-06T02:45:58;25.20;55.40
44477;DHT22;30180;44.788;10.366;2023-08-06T02:48:27;25.20;55.40
44477;DHT22;30180;44.788;10.366;2023-08-06T02:50:57;25.20;55.40
44477;DHT22;30180;44.788;10.366;2023-08-06T02:53:27;25.20;55.40
44477;DHT22;30180;44.788;10.366;2023-08-06T02:55:55;25.20;55.40
44477;DHT22;30180;44.788;10.366;2023-08-06T02:58:25;25.20;55.40
44477;DHT22;30180;44.788;10.366;2023-08-06T03:01:00;25.20;55.40
44477;DHT22;30180;44.788;10.366;2023-08-06T03:03:30;25.20;55.40
44477;DHT22;30180;44.788;10.366;2023-08-06T03:05:58;25.20;55.40
44477;DHT22;30180;44.788;10.366;2023-08-06T03:08:27;25.20;55.40
44477;DHT22;30180;44.788;10.366;2023-08-06T03:10:55;25.20;55.40
44477;DHT22;30180;44.788;10.366;2023-08-06T03:13:25;25.20;55.40
44477;DHT22;30180;44.788;10.366;2023-08-06T03:15:53;25.20;55.40
44477;DHT22;30180;44.788;10.366;2023-08-06T03:18:22;25.20;55.40
44477;DHT22;30180;44.788;10.366;2023-08-06T03:20:50;25.20;55.50
44477;DHT22;30180;44.788;10.366;2023-08-06T03:23:19;25.20;55.50
44477;DHT22;30180;44.788;10.366;2023-08-06T03:25:47;25.20;55.50
44477;DHT22;30180;44.788;10.366;2023-08-06T03:28:15;25.20;55.50
44477;DHT22;30180;44.788;10.366;2023-08-06T03:30:45;25.20;55.50
44477;DHT22;30180;44.788;10.366;2023-08-06T03:33:13;25.20;55.50
44477;DHT22;30180;44.788;10.366;2023-08-06T03:35:42;25.20;55.50
44477;DHT22;30180;44.788;10.366;2023-08-06T03:38:10;25.10;55.40
44477;DHT22;30180;44.788;10.366;2023-08-06T03:40:38;25.10;55.40
44477;DHT22;30180;44.788;10.366;2023-08-06T03:43:05;25.10;55.40
44477;DHT22;30180;44.788;10.366;2023-08-06T03:45:34;25.20;55.50
44477;DHT22;30180;44.788;10.366;2023-08-06T03:48:04;25.10;55.40
44477;DHT22;30180;44.788;10.366;2023-08-06T03:50:32;25.10;55.40
44477;DHT22;30180;44.788;10.366;2023-08-06T03:53:00;25.10;55.50
44477;DHT22;30180;44.788;10.366;2023-08-06T03:55:29;25.10;55.50
44477;DHT22;30180;44.788;10.366;2023-08-06T03:57:57;25.10;55.50
44477;DHT22;30180;44.788;10.366;2023-08-06T04:00:25;25.10;55.50
44477;DHT22;30180;44.788;10.366;2023-08-06T04:02:54;25.10;55.50
44477;DHT22;30180;44.788;10.366;2023-08-06T04:05:24;25.10;55.50
44477;DHT22;30180;44.788;10.366;2023-08-06T04:07:52;25.10;55.50
44477;DHT22;30180;44.788;10.366;2023-08-06T04:10:20;25.10;55.50
44477;DHT22;30180;44.788;10.366;2023-08-06T04:12:48;25.10;55.50
44477;DHT22;30180;44.788;10.366;2023-08-06T04:15:17;25.10;55.50
44477;DHT22;30180;44.788;10.366;2023-08-06T04:17:45;25.00;55.40
44477;DHT22;30180;44.788;10.366;2023-08-06T04:20:13;25.00;55.40
44477;DHT22;30180;44.788;10.366;2023-08-06T04:22:43;25.00;55.50
44477;DHT22;30180;44.788;10.366;2023-08-06T04:25:11;25.00;55.50
44477;DHT22;30180;44.788;10.366;2023-08-06T04:27:39;25.00;55.50
44477;DHT22;30180;44.788;10.366;2023-08-06T04:30:09;25.00;55.50
44477;DHT22;30180;44.788;10.366;2023-08-06T04:32:39;25.00;55.50
44477;DHT22;30180;44.788;10.366;2023-08-06T04:35:07;25.00;55.50
44477;DHT22;30180;44.788;10.366;2023-08-06T04:37:35;25.00;55.50
44477;DHT22;30180;44.788;10.366;2023-08-06T04:40:06;25.00;55.50
44477;DHT22;30180;44.788;10.366;2023-08-06T04:42:34;25.00;55.50
44477;DHT22;30180;44.788;10.366;2023-08-06T04:45:03;25.00;55.50
44477;DHT22;30180;44.788;10.366;2023-08-06T04:47:32;25.00;55.50
44477;DHT22;30180;44.788;10.366;2023-08-06T04:50:00;25.00;55.50
44477;DHT22;30180;44.788;10.366;2023-08-06T04:52:28;25.00;55.50
44477;DHT22;30180;44.788;10.366;2023-08-06T04:54:59;25.00;55.40
44477;DHT22;30180;44.788;10.366;2023-08-06T04:57:28;25.00;55.40
44477;DHT22;30180;44.788;10.366;2023-08-06T04:59:57;24.90;55.40
44477;DHT22;30180;44.788;10.366;2023-08-06T05:02:25;24.90;55.30
44477;DHT22;30180;44.788;10.366;2023-08-06T05:04:53;24.90;55.30
44477;DHT22;30180;44.788;10.366;2023-08-06T05:07:22;24.90;55.30
44477;DHT22;30180;44.788;10.366;2023-08-06T05:09:50;24.90;55.30
44477;DHT22;30180;44.788;10.366;2023-08-06T05:12:18;24.90;55.30
44477;DHT22;30180;44.788;10.366;2023-08-06T05:14:48;24.80;55.20
44477;DHT22;30180;44.788;10.366;2023-08-06T05:17:16;24.80;55.20
44477;DHT22;30180;44.788;10.366;2023-08-06T05:19:45;24.80;55.20
44477;DHT22;30180;44.788;10.366;2023-08-06T05:22:13;24.80;55.20
44477;DHT22;30180;44.788;10.366;2023-08-06T05:24:41;24.80;55.20
44477;DHT22;30180;44.788;10.366;2023-08-06T05:27:09;24.80;55.20
44477;DHT22;30180;44.788;10.366;2023-08-06T05:29:38;24.80;55.10
44477;DHT22;30180;44.788;10.366;2023-08-06T05:32:07;24.80;55.10
44477;DHT22;30180;44.788;10.366;2023-08-06T05:34:36;24.80;55.10
44477;DHT22;30180;44.788;10.366;2023-08-06T05:37:05;24.80;55.10
44477;DHT22;30180;44.788;10.366;2023-08-06T05:39:33;24.80;55.10
44477;DHT22;30180;44.788;10.366;2023-08-06T05:42:01;24.70;55.00
44477;DHT22;30180;44.788;10.366;2023-08-06T05:44:30;24.70;55.00
44477;DHT22;30180;44.788;10.366;2023-08-06T05:46:58;24.70;54.90
44477;DHT22;30180;44.788;10.366;2023-08-06T05:49:28;24.70;55.00
44477;DHT22;30180;44.788;10.366;2023-08-06T05:51:56;24.70;54.90
44477;DHT22;30180;44.788;10.366;2023-08-06T05:54:25;24.70;55.60
44477;DHT22;30180;44.788;10.366;2023-08-06T05:56:53;24.70;54.90
44477;DHT22;30180;44.788;10.366;2023-08-06T05:59:21;24.70;54.90
44477;DHT22;30180;44.788;10.366;2023-08-06T06:01:49;24.70;54.90
44477;DHT22;30180;44.788;10.366;2023-08-06T06:04:18;24.70;54.80
44477;DHT22;30180;44.788;10.366;2023-08-06T06:06:48;24.70;54.80
44477;DHT22;30180;44.788;10.366;2023-08-06T06:09:16;24.70;54.80
44477;DHT22;30180;44.788;10.366;2023-08-06T06:11:45;24.70;54.80
44477;DHT22;30180;44.788;10.366;2023-08-06T06:14:14;24.70;54.80
44477;DHT22;30180;44.788;10.366;2023-08-06T06:16:42;24.70;54.70
44477;DHT22;30180;44.788;10.366;2023-08-06T06:19:11;24.70;54.70
44477;DHT22;30180;44.788;10.366;2023-08-06T06:21:39;24.70;54.80
44477;DHT22;30180;44.788;10.366;2023-08-06T06:24:09;24.70;54.70
44477;DHT22;30180;44.788;10.366;2023-08-06T06:26:37;24.70;54.70
44477;DHT22;30180;44.788;10.366;2023-08-06T06:29:06;24.70;54.70
44477;DHT22;30180;44.788;10.366;2023-08-06T06:31:34;24.70;54.70
44477;DHT22;30180;44.788;10.366;2023-08-06T06:34:03;24.70;54.70
44477;DHT22;30180;44.788;10.366;2023-08-06T06:36:31;24.70;54.60
44477;DHT22;30180;44.788;10.366;2023-08-06T06:38:59;24.70;54.60
44477;DHT22;30180;44.788;10.366;2023-08-06T06:41:29;24.70;54.60
44477;DHT22;30180;44.788;10.366;2023-08-06T06:43:59;24.70;54.50
44477;DHT22;30180;44.788;10.366;2023-08-06T06:46:28;24.70;54.50
44477;DHT22;30180;44.788;10.366;2023-08-06T06:48:56;24.80;54.60
44477;DHT22;30180;44.788;10.366;2023-08-06T06:51:24;24.70;54.50
44477;DHT22;30180;44.788;10.366;2023-08-06T06:53:53;24.80;54.50
44477;DHT22;30180;44.788;10.366;2023-08-06T06:56:21;24.70;54.40
44477;DHT22;30180;44.788;10.366;2023-08-06T06:58:50;24.80;54.50
44477;DHT22;30180;44.788;10.366;2023-08-06T07:01:19;24.80;54.40
44477;DHT22;30180;44.788;10.366;2023-08-06T07:03:47;24.80;54.40
44477;DHT22;30180;44.788;10.366;2023-08-06T07:06:15;24.70;54.40
44477;DHT22;30180;44.788;10.366;2023-08-06T07:08:45;24.80;54.40
44477;DHT22;30180;44.788;10.366;2023-08-06T07:11:13;24.80;54.40
44477;DHT22;30180;44.788;10.366;2023-08-06T07:13:42;24.70;54.30
44477;DHT22;30180;44.788;10.366;2023-08-06T07:16:11;24.80;54.40
44477;DHT22;30180;44.788;10.366;2023-08-06T07:18:40;24.80;54.30
44477;DHT22;30180;44.788;10.366;2023-08-06T07:21:08;24.80;54.30
44477;DHT22;30180;44.788;10.366;2023-08-06T07:23:36;24.80;54.30
44477;DHT22;30180;44.788;10.366;2023-08-06T07:26:04;24.80;54.30
44477;DHT22;30180;44.788;10.366;2023-08-06T07:28:33;24.80;54.30
44477;DHT22;30180;44.788;10.366;2023-08-06T07:31:03;24.80;54.30
44477;DHT22;30180;44.788;10.366;2023-08-06T07:33:36;24.80;54.30
44477;DHT22;30180;44.788;10.366;2023-08-06T07:36:08;24.80;54.30
44477;DHT22;30180;44.788;10.366;2023-08-06T07:38:37;24.80;54.20
44477;DHT22;30180;44.788;10.366;2023-08-06T07:41:05;24.80;54.20
44477;DHT22;30180;44.788;10.366;2023-08-06T07:43:34;24.80;54.30
44477;DHT22;30180;44.788;10.366;2023-08-06T07:46:02;24.80;54.20
44477;DHT22;30180;44.788;10.366;2023-08-06T07:48:31;24.80;54.20
44477;DHT22;30180;44.788;10.366;2023-08-06T07:51:00;24.80;54.20
44477;DHT22;30180;44.788;10.366;2023-08-06T07:53:29;24.80;54.20
44477;DHT22;30180;44.788;10.366;2023-08-06T07:55:58;24.80;54.20
44477;DHT22;30180;44.788;10.366;2023-08-06T07:58:28;24.80;54.20
44477;DHT22;30180;44.788;10.366;2023-08-06T08:00:57;24.80;54.20
44477;DHT22;30180;44.788;10.366;2023-08-06T08:03:28;24.80;54.10
44477;DHT22;30180;44.788;10.366;2023-08-06T08:05:56;24.80;54.10
44477;DHT22;30180;44.788;10.366;2023-08-06T08:08:26;24.80;54.20
44477;DHT22;30180;44.788;10.366;2023-08-06T08:10:55;24.80;54.10
44477;DHT22;30180;44.788;10.366;2023-08-06T08:13:26;24.80;54.10
44477;DHT22;30180;44.788;10.366;2023-08-06T08:15:57;24.80;54.10
44477;DHT22;30180;44.788;10.366;2023-08-06T08:18:26;24.80;54.20
44477;DHT22;30180;44.788;10.366;2023-08-06T08:20:54;24.80;54.10
44477;DHT22;30180;44.788;10.366;2023-08-06T08:23:22;24.80;54.10
44477;DHT22;30180;44.788;10.366;2023-08-06T08:25:52;24.80;54.10
44477;DHT22;30180;44.788;10.366;2023-08-06T08:28:21;24.80;54.10
44477;DHT22;30180;44.788;10.366;2023-08-06T08:30:49;24.80;54.10
44477;DHT22;30180;44.788;10.366;2023-08-06T08:33:17;24.80;54.10
44477;DHT22;30180;44.788;10.366;2023-08-06T08:35:46;24.80;54.10
44477;DHT22;30180;44.788;10.366;2023-08-06T08:38:14;24.90;54.20
44477;DHT22;30180;44.788;10.366;2023-08-06T08:40:46;24.80;54.10
44477;DHT22;30180;44.788;10.366;2023-08-06T08:43:17;24.80;54.10
44477;DHT22;30180;44.788;10.366;2023-08-06T08:45:50;24.80;54.10
44477;DHT22;30180;44.788;10.366;2023-08-06T08:48:19;24.80;54.10
44477;DHT22;30180;44.788;10.366;2023-08-06T08:50:49;24.90;54.20
44477;DHT22;30180;44.788;10.366;2023-08-06T08:53:18;24.90;54.20
44477;DHT22;30180;44.788;10.366;2023-08-06T08:55:48;24.80;54.10
44477;DHT22;30180;44.788;10.366;2023-08-06T08:58:18;24.80;54.10
44477;DHT22;30180;44.788;10.366;2023-08-06T09:00:46;24.90;54.20
44477;DHT22;30180;44.788;10.366;2023-08-06T09:03:16;24.80;54.10
44477;DHT22;30180;44.788;10.366;2023-08-06T09:05:45;24.90;54.10
44477;DHT22;30180;44.788;10.366;2023-08-06T09:08:21;24.80;54.10
44477;DHT22;30180;44.788;10.366;2023-08-06T09:10:52;24.90;54.20
44477;DHT22;30180;44.788;10.366;2023-08-06T09:13:22;24.80;54.10
44477;DHT22;30180;44.788;10.366;2023-08-06T09:15:50;24.80;54.10
44477;DHT22;30180;44.788;10.366;2023-08-06T09:18:25;24.90;54.20
44477;DHT22;30180;44.788;10.366;2023-08-06T09:20:55;24.80;54.10
44477;DHT22;30180;44.788;10.366;2023-08-06T09:23:28;24.80;54.10
44477;DHT22;30180;44.788;10.366;2023-08-06T09:25:58;24.80;54.10
44477;DHT22;30180;44.788;10.366;2023-08-06T09:28:36;24.90;54.20
44477;DHT22;30180;44.788;10.366;2023-08-06T09:31:06;24.90;54.20
44477;DHT22;30180;44.788;10.366;2023-08-06T09:33:36;24.80;54.10
44477;DHT22;30180;44.788;10.366;2023-08-06T09:36:09;24.80;54.10
44477;DHT22;30180;44.788;10.366;2023-08-06T09:38:38;24.90;54.20
44477;DHT22;30180;44.788;10.366;2023-08-06T09:41:08;24.80;54.10
44477;DHT22;30180;44.788;10.366;2023-08-06T09:43:41;24.90;54.20
44477;DHT22;30180;44.788;10.366;2023-08-06T09:46:13;24.90;54.20
44477;DHT22;30180;44.788;10.366;2023-08-06T09:48:48;24.90;54.20
44477;DHT22;30180;44.788;10.366;2023-08-06T09:51:17;24.90;54.20
44477;DHT22;30180;44.788;10.366;2023-08-06T09:53:47;24.90;54.20
44477;DHT22;30180;44.788;10.366;2023-08-06T09:56:17;24.90;54.20
44477;DHT22;30180;44.788;10.366;2023-08-06T09:58:49;24.90;54.20
44477;DHT22;30180;44.788;10.366;2023-08-06T10:01:18;24.80;54.20
44477;DHT22;30180;44.788;10.366;2023-08-06T10:03:47;24.90;54.20
44477;DHT22;30180;44.788;10.366;2023-08-06T10:06:18;24.80;54.20
44477;DHT22;30180;44.788;10.366;2023-08-06T10:08:47;24.90;54.20
44477;DHT22;30180;44.788;10.366;2023-08-06T10:11:17;24.90;54.20
44477;DHT22;30180;44.788;10.366;2023-08-06T10:13:47;24.80;54.20
44477;DHT22;30180;44.788;10.366;2023-08-06T10:16:15;24.90;54.20
44477;DHT22;30180;44.788;10.366;2023-08-06T10:18:44;24.80;54.20
44477;DHT22;30180;44.788;10.366;2023-08-06T10:21:14;24.80;54.20
44477;DHT22;30180;44.788;10.366;2023-08-06T10:23:43;24.90;54.20
44477;DHT22;30180;44.788;10.366;2023-08-06T10:26:11;24.90;54.20
44477;DHT22;30180;44.788;10.366;2023-08-06T10:28:42;24.80;54.20
44477;DHT22;30180;44.788;10.366;2023-08-06T10:31:12;24.90;54.20
44477;DHT22;30180;44.788;10.366;2023-08-06T10:33:42;24.80;54.20
44477;DHT22;30180;44.788;10.366;2023-08-06T10:36:11;24.80;54.20
44477;DHT22;30180;44.788;10.366;2023-08-06T10:38:47;24.80;54.20
44477;DHT22;30180;44.788;10.366;2023-08-06T10:41:21;24.90;54.30
44477;DHT22;30180;44.788;10.366;2023-08-06T10:43:50;24.90;54.30
44477;DHT22;30180;44.788;10.366;2023-08-06T10:46:26;24.90;54.30
44477;DHT22;30180;44.788;10.366;2023-08-06T10:48:55;24.90;54.30
44477;DHT22;30180;44.788;10.366;2023-08-06T10:51:25;24.80;54.30
44477;DHT22;30180;44.788;10.366;2023-08-06T10:53:54;24.80;54.30
44477;DHT22;30180;44.788;10.366;2023-08-06T10:56:24;24.80;54.30
44477;DHT22;30180;44.788;10.366;2023-08-06T10:58:54;24.90;54.30
44477;DHT22;30180;44.788;10.366;2023-08-06T11:01:26;24.90;54.30
44477;DHT22;30180;44.788;10.366;2023-08-06T11:04:01;24.90;54.30
44477;DHT22;30180;44.788;10.366;2023-08-06T11:06:31;24.90;54.30
44477;DHT22;30180;44.788;10.366;2023-08-06T11:09:01;24.90;54.30
44477;DHT22;30180;44.788;10.366;2023-08-06T11:11:30;24.90;54.30
44477;DHT22;30180;44.788;10.366;2023-08-06T11:13:58;24.90;54.30
44477;DHT22;30180;44.788;10.366;2023-08-06T11:16:28;24.90;54.30
44477;DHT22;30180;44.788;10.366;2023-08-06T11:18:57;24.90;54.30
44477;DHT22;30180;44.788;10.366;2023-08-06T11:21:27;24.90;54.30
44477;DHT22;30180;44.788;10.366;2023-08-06T11:23:56;24.90;54.30
44477;DHT22;30180;44.788;10.366;2023-08-06T11:26:24;24.90;54.30
44477;DHT22;30180;44.788;10.366;2023-08-06T11:28:54;24.90;54.30
44477;DHT22;30180;44.788;10.366;2023-08-06T11:31:23;24.90;54.30
44477;DHT22;30180;44.788;10.366;2023-08-06T11:33:53;25.00;54.40
44477;DHT22;30180;44.788;10.366;2023-08-06T11:36:31;24.90;54.30
44477;DHT22;30180;44.788;10.366;2023-08-06T11:39:00;24.90;54.30
44477;DHT22;30180;44.788;10.366;2023-08-06T11:41:29;25.00;54.40
44477;DHT22;30180;44.788;10.366;2023-08-06T11:43:58;24.90;54.30
44477;DHT22;30180;44.788;10.366;2023-08-06T11:46:26;25.00;54.40
44477;DHT22;30180;44.788;10.366;2023-08-06T11:48:57;25.00;54.40
44477;DHT22;30180;44.788;10.366;2023-08-06T11:51:28;25.00;54.40
44477;DHT22;30180;44.788;10.366;2023-08-06T11:53:57;25.00;54.40
44477;DHT22;30180;44.788;10.366;2023-08-06T11:56:25;25.00;54.40
44477;DHT22;30180;44.788;10.366;2023-08-06T11:58:55;25.00;54.40
44477;DHT22;30180;44.788;10.366;2023-08-06T12:01:23;25.00;54.40
44477;DHT22;30180;44.788;10.366;2023-08-06T12:03:52;25.00;54.40
44477;DHT22;30180;44.788;10.366;2023-08-06T12:06:22;25.00;54.40
44477;DHT22;30180;44.788;10.366;2023-08-06T12:08:54;25.00;54.40
44477;DHT22;30180;44.788;10.366;2023-08-06T12:11:23;25.00;54.40
44477;DHT22;30180;44.788;10.366;2023-08-06T12:13:52;25.00;54.40
44477;DHT22;30180;44.788;10.366;2023-08-06T12:16:20;25.00;54.40
44477;DHT22;30180;44.788;10.366;2023-08-06T12:18:50;25.00;54.40
44477;DHT22;30180;44.788;10.366;2023-08-06T12:21:19;25.00;54.40
44477;DHT22;30180;44.788;10.366;2023-08-06T12:23:49;25.00;54.30
44477;DHT22;30180;44.788;10.366;2023-08-06T12:26:17;25.00;54.40
44477;DHT22;30180;44.788;10.366;2023-08-06T12:28:45;25.00;54.30
44477;DHT22;30180;44.788;10.366;2023-08-06T12:31:13;25.00;54.30
44477;DHT22;30180;44.788;10.366;2023-08-06T12:33:42;25.00;54.30
44477;DHT22;30180;44.788;10.366;2023-08-06T12:36:10;25.00;54.30
44477;DHT22;30180;44.788;10.366;2023-08-06T12:38:38;25.00;54.30
44477;DHT22;30180;44.788;10.366;2023-08-06T12:41:08;25.00;54.30
44477;DHT22;30180;44.788;10.366;2023-08-06T12:43:36;25.00;54.30
44477;DHT22;30180;44.788;10.366;2023-08-06T12:46:05;25.00;54.30
44477;DHT22;30180;44.788;10.366;2023-08-06T12:48:33;25.00;54.30
44477;DHT22;30180;44.788;10.366;2023-08-06T12:51:02;25.00;54.30
44477;DHT22;30180;44.788;10.366;2023-08-06T12:53:30;25.00;54.30
44477;DHT22;30180;44.788;10.366;2023-08-06T12:55:58;25.00;54.30
44477;DHT22;30180;44.788;10.366;2023-08-06T12:58:28;25.10;54.30
44477;DHT22;30180;44.788;10.366;2023-08-06T13:00:56;25.00;54.30
44477;DHT22;30180;44.788;10.366;2023-08-06T13:03:25;25.00;54.20
44477;DHT22;30180;44.788;10.366;2023-08-06T13:05:56;25.00;54.20
44477;DHT22;30180;44.788;10.366;2023-08-06T13:08:25;25.00;54.20
44477;DHT22;30180;44.788;10.366;2023-08-06T13:10:53;25.00;54.20
44477;DHT22;30180;44.788;10.366;2023-08-06T13:13:22;25.10;54.30
44477;DHT22;30180;44.788;10.366;2023-08-06T13:15:55;25.00;54.20
44477;DHT22;30180;44.788;10.366;2023-08-06T13:18:23;25.10;54.30
44477;DHT22;30180;44.788;10.366;2023-08-06T13:20:53;25.10;54.30
44477;DHT22;30180;44.788;10.366;2023-08-06T13:23:21;25.10;54.20
44477;DHT22;30180;44.788;10.366;2023-08-06T13:25:50;25.10;54.30
44477;DHT22;30180;44.788;10.366;2023-08-06T13:28:18;25.00;54.10
44477;DHT22;30180;44.788;10.366;2023-08-06T13:30:46;25.00;54.10
44477;DHT22;30180;44.788;10.366;2023-08-06T13:33:16;25.00;54.10
44477;DHT22;30180;44.788;10.366;2023-08-06T13:35:44;25.00;54.10
44477;DHT22;30180;44.788;10.366;2023-08-06T13:38:13;25.00;54.10
44477;DHT22;30180;44.788;10.366;2023-08-06T13:40:41;25.00;54.10
44477;DHT22;30180;44.788;10.366;2023-08-06T13:43:11;25.00;54.00
44477;DHT22;30180;44.788;10.366;2023-08-06T13:45:39;25.00;54.10
44477;DHT22;30180;44.788;10.366;2023-08-06T13:48:08;25.00;54.10
44477;DHT22;30180;44.788;10.366;2023-08-06T13:50:38;25.00;54.00
44477;DHT22;30180;44.788;10.366;2023-08-06T13:53:07;25.00;54.00
44477;DHT22;30180;44.788;10.366;2023-08-06T13:55:35;25.00;54.00
44477;DHT22;30180;44.788;10.366;2023-08-06T13:58:04;25.00;54.00
44477;DHT22;30180;44.788;10.366;2023-08-06T14:00:32;25.00;54.00
44477;DHT22;30180;44.788;10.366;2023-08-06T14:03:00;25.00;54.00
44477;DHT22;30180;44.788;10.366;2023-08-06T14:05:29;25.00;54.00
44477;DHT22;30180;44.788;10.366;2023-08-06T14:07:59;24.90;53.90
44477;DHT22;30180;44.788;10.366;2023-08-06T14:10:27;25.00;53.90
44477;DHT22;30180;44.788;10.366;2023-08-06T14:12:55;25.00;53.90
44477;DHT22;30180;44.788;10.366;2023-08-06T14:15:37;24.90;53.90
44477;DHT22;30180;44.788;10.366;2023-08-06T14:18:07;25.00;53.90
44477;DHT22;30180;44.788;10.366;2023-08-06T14:20:36;24.90;53.90
44477;DHT22;30180;44.788;10.366;2023-08-06T14:23:05;24.90;53.90
44477;DHT22;30180;44.788;10.366;2023-08-06T14:25:34;24.90;53.90
44477;DHT22;30180;44.788;10.366;2023-08-06T14:28:02;25.00;53.90
44477;DHT22;30180;44.788;10.366;2023-08-06T14:30:33;25.00;53.90
44477;DHT22;30180;44.788;10.366;2023-08-06T14:33:02;24.90;53.90
44477;DHT22;30180;44.788;10.366;2023-08-06T14:35:50;24.90;53.90
44477;DHT22;30180;44.788;10.366;2023-08-06T14:38:20;25.00;53.90
44477;DHT22;30180;44.788;10.366;2023-08-06T14:40:48;24.90;53.90
44477;DHT22;30180;44.788;10.366;2023-08-06T14:43:17;25.00;53.90
44477;DHT22;30180;44.788;10.366;2023-08-06T14:45:45;25.00;53.90
44477;DHT22;30180;44.788;10.366;2023-08-06T14:48:13;24.90;53.90
44477;DHT22;30180;44.788;10.366;2023-08-06T14:50:42;24.90;53.80
44477;DHT22;30180;44.788;10.366;2023-08-06T14:53:11;25.00;53.90
44477;DHT22;30180;44.788;10.366;2023-08-06T14:55:41;24.90;53.90
44477;DHT22;30180;44.788;10.366;2023-08-06T14:58:09;24.90;53.90
44477;DHT22;30180;44.788;10.366;2023-08-06T15:00:38;24.90;53.90
44477;DHT22;30180;44.788;10.366;2023-08-06T15:03:06;24.90;53.90
44477;DHT22;30180;44.788;10.366;2023-08-06T15:05:35;24.90;53.90
44477;DHT22;30180;44.788;10.366;2023-08-06T15:08:03;24.90;53.90
44477;DHT22;30180;44.788;10.366;2023-08-06T15:10:31;24.90;53.80
44477;DHT22;30180;44.788;10.366;2023-08-06T15:13:01;24.90;53.80
44477;DHT22;30180;44.788;10.366;2023-08-06T15:15:30;24.90;53.70
44477;DHT22;30180;44.788;10.366;2023-08-06T15:17:58;24.90;53.50
44477;DHT22;30180;44.788;10.366;2023-08-06T15:20:26;24.80;53.20
44477;DHT22;30180;44.788;10.366;2023-08-06T15:22:55;24.80;53.20
44477;DHT22;30180;44.788;10.366;2023-08-06T15:25:25;24.80;53.40
44477;DHT22;30180;44.788;10.366;2023-08-06T15:27:53;24.80;53.50